Terminal Aerodrome Forecast
Issued by NWS Missoula, MT

Home | Current Version | Previous Version | Text Only | Print | Product List | Glossary On
Versions: 1 2 3 4 5 6 7 8 9 10 11 12 13 14 15 16
000
FTUS45 KMSO 240520
TAFGPI
TAF
KGPI 240520Z 2406/2506 18005KT 6SM -SN OVC050
     FM240900 17006KT 4SM -SN OVC030
     FM241600 19006KT 6SM -SN OVC035
     FM242000 20006KT P6SM OVC040=

USA.gov is the U.S. government's official web portal to all federal, state and local government web resources and services.